Virtual Norwegian is not affiliated with Norwegian Air Shuttle in any way.
If you are looking for the real "Norwegian", or you wish to book Norwegian flights, please visit Norwegian.com


We use cookies to ensure you get the best experience on our website.   ACCEPT

EGPH - EDI - Edinburgh (Edinburgh)

General Info Alternate Airport
ICAO: EGPH Elevation: 135 ft ICAO: EGPF
IATA: EDI Country: United Kingdom IATA: GLA
City: Edinburgh Charts: Log in to view charts City: Glasgow
Name: Edinburgh Hub: No Name Glasgow
General Info
ICAO: EGPH
IATA: EDI
City: Edinburgh
Name: Edinburgh
Elevation: 135 ft
Country: United Kingdom
Charts: Log in to view charts
Hub: No
 
Alternate Airport
ICAO: EGPF
IATA: GLA
City: Glasgow
Name: Glasgow

Weather
201850Z 25004KT 9999 FEW040 16/11 Q1020
Weather
201850Z 25004KT 9999 FEW040 16/11 Q1020

Runway Info
06
Length ILS/LOC Course
2556 m 108.90 062
12
Length ILS/LOC Heading
1797 m N/A 119
24
Length ILS/LOC Course
2556 m 108.90 242
30
Length ILS/LOC Heading
1797 m N/A 299

NOTAMs
NOTAMs currently unavailable.
NOTAMs
NOTAMs currently unavailable

Route map
Airport
Airport (hub)